sensor_id;sensor_type;location;lat;lon;timestamp;pressure;altitude;pressure_sealevel;temperature;humidity
47154;BME280;32907;41.412;2.164;2023-07-13T00:00:54;100536.13;;;29.42;49.59
47154;BME280;32907;41.412;2.164;2023-07-13T00:03:23;100562.13;;;29.53;49.37
47154;BME280;32907;41.412;2.164;2023-07-13T00:05:59;100552.88;;;29.49;49.23
47154;BME280;32907;41.412;2.164;2023-07-13T00:08:32;100542.38;;;29.39;49.42
47154;BME280;32907;41.412;2.164;2023-07-13T00:11:01;100559.34;;;29.53;49.08
47154;BME280;32907;41.412;2.164;2023-07-13T00:13:30;100559.34;;;29.53;49.64
47154;BME280;32907;41.412;2.164;2023-07-13T00:15:59;100553.84;;;29.41;49.29
47154;BME280;32907;41.412;2.164;2023-07-13T00:18:26;100531.13;;;29.32;49.35
47154;BME280;32907;41.412;2.164;2023-07-13T00:20:57;100523.28;;;29.34;49.59
47154;BME280;32907;41.412;2.164;2023-07-13T00:23:37;100556.22;;;29.55;49.62
47154;BME280;32907;41.412;2.164;2023-07-13T00:26:08;100549.78;;;29.50;49.68
47154;BME280;32907;41.412;2.164;2023-07-13T00:28:39;100559.00;;;29.55;49.28
47154;BME280;32907;41.412;2.164;2023-07-13T00:31:08;100555.44;;;29.54;49.22
47154;BME280;32907;41.412;2.164;2023-07-13T00:33:37;100539.34;;;29.44;49.22
47154;BME280;32907;41.412;2.164;2023-07-13T00:36:05;100544.16;;;29.47;49.75
47154;BME280;32907;41.412;2.164;2023-07-13T00:38:33;100546.69;;;29.52;49.76
47154;BME280;32907;41.412;2.164;2023-07-13T00:41:01;100493.69;;;29.18;49.48
47154;BME280;32907;41.412;2.164;2023-07-13T00:43:31;100555.44;;;29.54;49.34
47154;BME280;32907;41.412;2.164;2023-07-13T00:46:21;100567.63;;;29.53;49.80
47154;BME280;32907;41.412;2.164;2023-07-13T00:48:50;100505.88;;;29.17;49.64
47154;BME280;32907;41.412;2.164;2023-07-13T00:51:24;100561.75;;;29.55;49.86
47154;BME280;32907;41.412;2.164;2023-07-13T00:53:54;100565.56;;;29.50;49.78
47154;BME280;32907;41.412;2.164;2023-07-13T00:56:24;100535.94;;;29.35;49.28
47154;BME280;32907;41.412;2.164;2023-07-13T00:58:54;100562.44;;;29.51;49.96
47154;BME280;32907;41.412;2.164;2023-07-13T01:01:23;100528.44;;;29.35;49.92
47154;BME280;32907;41.412;2.164;2023-07-13T01:03:51;100552.56;;;29.50;49.43
47154;BME280;32907;41.412;2.164;2023-07-13T01:06:19;100508.22;;;29.15;49.70
47154;BME280;32907;41.412;2.164;2023-07-13T01:08:47;100491.19;;;29.13;49.92
47154;BME280;32907;41.412;2.164;2023-07-13T01:11:21;100554.97;;;29.52;49.83
47154;BME280;32907;41.412;2.164;2023-07-13T01:13:49;100547.72;;;29.47;49.92
47154;BME280;32907;41.412;2.164;2023-07-13T01:16:44;100551.06;;;29.53;50.03
47154;BME280;32907;41.412;2.164;2023-07-13T01:21:51;100529.59;;;29.34;50.27
47154;BME280;32907;41.412;2.164;2023-07-13T01:24:19;100507.16;;;29.20;50.31
47154;BME280;32907;41.412;2.164;2023-07-13T01:26:48;100515.59;;;29.27;50.81
47154;BME280;32907;41.412;2.164;2023-07-13T01:29:16;100535.59;;;29.36;50.71
47154;BME280;32907;41.412;2.164;2023-07-13T01:31:44;100523.91;;;29.27;50.34
47154;BME280;32907;41.412;2.164;2023-07-13T01:34:12;100525.06;;;29.26;50.48
47154;BME280;32907;41.412;2.164;2023-07-13T01:36:40;100548.34;;;29.41;50.93
47154;BME280;32907;41.412;2.164;2023-07-13T01:39:08;100510.72;;;29.20;50.52
47154;BME280;32907;41.412;2.164;2023-07-13T01:41:36;100543.72;;;29.45;50.68
47154;BME280;32907;41.412;2.164;2023-07-13T01:44:04;100522.84;;;29.32;50.68
47154;BME280;32907;41.412;2.164;2023-07-13T01:46:32;100551.28;;;29.48;50.96
47154;BME280;32907;41.412;2.164;2023-07-13T01:49:00;100529.28;;;29.36;51.46
47154;BME280;32907;41.412;2.164;2023-07-13T01:51:28;100544.16;;;29.47;51.64
47154;BME280;32907;41.412;2.164;2023-07-13T01:53:56;100530.53;;;29.38;51.87
47154;BME280;32907;41.412;2.164;2023-07-13T01:56:24;100533.63;;;29.37;52.25
47154;BME280;32907;41.412;2.164;2023-07-13T01:58:52;100544.16;;;29.47;51.80
47154;BME280;32907;41.412;2.164;2023-07-13T02:01:20;100509.75;;;29.29;51.90
47154;BME280;32907;41.412;2.164;2023-07-13T02:03:48;100525.78;;;29.39;52.35
47154;BME280;32907;41.412;2.164;2023-07-13T02:06:16;100537.72;;;29.43;52.51
47154;BME280;32907;41.412;2.164;2023-07-13T02:08:44;100541.66;;;29.42;52.25
47154;BME280;32907;41.412;2.164;2023-07-13T02:11:12;100532.03;;;29.36;52.50
47154;BME280;32907;41.412;2.164;2023-07-13T02:13:40;100544.03;;;29.43;52.49
47154;BME280;32907;41.412;2.164;2023-07-13T02:16:08;100507.84;;;29.17;52.50
47154;BME280;32907;41.412;2.164;2023-07-13T02:18:37;100539.25;;;29.40;52.42
47154;BME280;32907;41.412;2.164;2023-07-13T02:21:05;100523.56;;;29.29;52.40
47154;BME280;32907;41.412;2.164;2023-07-13T02:23:33;100536.59;;;29.44;52.79
47154;BME280;32907;41.412;2.164;2023-07-13T02:26:04;100543.59;;;29.41;52.60
47154;BME280;32907;41.412;2.164;2023-07-13T02:28:32;100533.88;;;29.32;53.04
47154;BME280;32907;41.412;2.164;2023-07-13T02:31:12;100525.59;;;29.32;52.59
47154;BME280;32907;41.412;2.164;2023-07-13T02:33:41;100547.63;;;29.44;52.79
47154;BME280;32907;41.412;2.164;2023-07-13T02:36:11;100523.09;;;29.26;52.83
47154;BME280;32907;41.412;2.164;2023-07-13T02:38:40;100502.25;;;29.13;52.79
47154;BME280;32907;41.412;2.164;2023-07-13T02:41:08;100552.00;;;29.45;53.04
47154;BME280;32907;41.412;2.164;2023-07-13T02:43:37;100539.97;;;29.37;53.28
47154;BME280;32907;41.412;2.164;2023-07-13T02:46:05;100538.63;;;29.31;53.21
47154;BME280;32907;41.412;2.164;2023-07-13T02:48:38;100551.63;;;29.31;53.40
47154;BME280;32907;41.412;2.164;2023-07-13T02:51:07;100540.22;;;29.32;53.43
47154;BME280;32907;41.412;2.164;2023-07-13T02:53:36;100557.84;;;29.43;53.12
47154;BME280;32907;41.412;2.164;2023-07-13T02:56:05;100557.53;;;29.45;53.58
47154;BME280;32907;41.412;2.164;2023-07-13T02:58:33;100510.91;;;29.12;53.82
47154;BME280;32907;41.412;2.164;2023-07-13T03:01:07;100558.22;;;29.42;53.45
47154;BME280;32907;41.412;2.164;2023-07-13T03:03:36;100527.53;;;29.15;53.78
47154;BME280;32907;41.412;2.164;2023-07-13T03:06:05;100524.88;;;29.19;53.55
47154;BME280;32907;41.412;2.164;2023-07-13T03:08:46;100563.66;;;29.38;53.49
47154;BME280;32907;41.412;2.164;2023-07-13T03:11:16;100573.63;;;29.43;53.50
47154;BME280;32907;41.412;2.164;2023-07-13T03:13:48;100572.31;;;29.37;53.60
47154;BME280;32907;41.412;2.164;2023-07-13T03:16:17;100581.13;;;29.42;54.24
47154;BME280;32907;41.412;2.164;2023-07-13T03:18:48;100580.31;;;29.42;53.80
47154;BME280;32907;41.412;2.164;2023-07-13T03:21:16;100457.94;;;28.66;53.81
47154;BME280;32907;41.412;2.164;2023-07-13T03:23:45;100518.44;;;28.99;54.00
47154;BME280;32907;41.412;2.164;2023-07-13T03:26:16;100512.47;;;28.97;53.91
47154;BME280;32907;41.412;2.164;2023-07-13T03:28:46;100539.75;;;29.14;54.01
47154;BME280;32907;41.412;2.164;2023-07-13T03:31:24;100573.81;;;29.34;53.86
47154;BME280;32907;41.412;2.164;2023-07-13T03:33:53;100566.13;;;29.27;53.92
47154;BME280;32907;41.412;2.164;2023-07-13T03:36:25;100579.25;;;29.31;53.94
47154;BME280;32907;41.412;2.164;2023-07-13T03:38:58;100567.19;;;29.23;54.26
47154;BME280;32907;41.412;2.164;2023-07-13T03:41:47;100539.00;;;29.02;54.22
47154;BME280;32907;41.412;2.164;2023-07-13T03:44:17;100552.31;;;29.12;54.01
47154;BME280;32907;41.412;2.164;2023-07-13T03:46:48;100565.16;;;29.20;53.96
47154;BME280;32907;41.412;2.164;2023-07-13T03:49:17;100565.97;;;29.20;54.16
47154;BME280;32907;41.412;2.164;2023-07-13T03:51:45;100585.81;;;29.26;54.17
47154;BME280;32907;41.412;2.164;2023-07-13T03:54:13;100581.72;;;29.20;54.45
47154;BME280;32907;41.412;2.164;2023-07-13T03:56:44;100598.81;;;29.25;54.36
47154;BME280;32907;41.412;2.164;2023-07-13T03:59:13;100600.41;;;29.26;54.34
47154;BME280;32907;41.412;2.164;2023-07-13T04:01:41;100550.75;;;28.98;54.50
47154;BME280;32907;41.412;2.164;2023-07-13T04:04:11;100577.69;;;29.17;54.39
47154;BME280;32907;41.412;2.164;2023-07-13T04:06:40;100577.16;;;29.12;54.28
47154;BME280;32907;41.412;2.164;2023-07-13T04:09:08;100580.38;;;29.14;54.44
47154;BME280;32907;41.412;2.164;2023-07-13T04:11:36;100587.56;;;29.18;54.70
47154;BME280;32907;41.412;2.164;2023-07-13T04:14:06;100573.13;;;29.09;54.52
47154;BME280;32907;41.412;2.164;2023-07-13T04:16:34;100597.81;;;29.18;54.87
47154;BME280;32907;41.412;2.164;2023-07-13T04:19:08;100568.66;;;29.05;54.74
47154;BME280;32907;41.412;2.164;2023-07-13T04:21:38;100565.00;;;29.01;54.96
47154;BME280;32907;41.412;2.164;2023-07-13T04:24:06;100581.75;;;29.08;54.92
47154;BME280;32907;41.412;2.164;2023-07-13T04:26:35;100603.91;;;29.23;54.84
47154;BME280;32907;41.412;2.164;2023-07-13T04:29:04;100576.84;;;29.01;54.82
47154;BME280;32907;41.412;2.164;2023-07-13T04:31:33;100586.69;;;29.14;55.15
47154;BME280;32907;41.412;2.164;2023-07-13T04:34:01;100597.72;;;29.14;55.29
47154;BME280;32907;41.412;2.164;2023-07-13T04:36:29;100592.72;;;29.04;55.24
47154;BME280;32907;41.412;2.164;2023-07-13T04:38:57;100569.28;;;28.98;55.22
47154;BME280;32907;41.412;2.164;2023-07-13T04:41:25;100577.63;;;29.02;55.39
47154;BME280;32907;41.412;2.164;2023-07-13T04:43:52;100605.56;;;29.12;55.43
47154;BME280;32907;41.412;2.164;2023-07-13T04:46:23;100611.28;;;29.19;55.48
47154;BME280;32907;41.412;2.164;2023-07-13T04:48:51;100608.41;;;29.16;55.57
47154;BME280;32907;41.412;2.164;2023-07-13T04:51:21;100584.56;;;28.95;55.31
47154;BME280;32907;41.412;2.164;2023-07-13T04:53:49;100607.97;;;29.14;55.38
47154;BME280;32907;41.412;2.164;2023-07-13T04:56:23;100608.78;;;29.14;55.61
47154;BME280;32907;41.412;2.164;2023-07-13T04:58:50;100495.50;;;28.42;55.06
47154;BME280;32907;41.412;2.164;2023-07-13T05:01:19;100608.13;;;29.05;55.74
47154;BME280;32907;41.412;2.164;2023-07-13T05:03:49;100614.91;;;29.08;55.46
47154;BME280;32907;41.412;2.164;2023-07-13T05:06:17;100585.16;;;28.89;55.62
47154;BME280;32907;41.412;2.164;2023-07-13T05:08:46;100620.66;;;29.03;55.32
47154;BME280;32907;41.412;2.164;2023-07-13T05:11:14;100614.00;;;29.04;55.21
47154;BME280;32907;41.412;2.164;2023-07-13T05:13:42;100629.94;;;29.10;55.19
47154;BME280;32907;41.412;2.164;2023-07-13T05:16:11;100612.28;;;28.99;55.41
47154;BME280;32907;41.412;2.164;2023-07-13T05:18:40;100646.63;;;29.14;55.05
47154;BME280;32907;41.412;2.164;2023-07-13T05:21:10;100614.59;;;28.97;55.12
47154;BME280;32907;41.412;2.164;2023-07-13T05:23:39;100589.53;;;28.78;54.65
47154;BME280;32907;41.412;2.164;2023-07-13T05:26:10;100444.22;;;27.89;54.75
47154;BME280;32907;41.412;2.164;2023-07-13T05:28:39;100518.28;;;28.39;54.79
47154;BME280;32907;41.412;2.164;2023-07-13T05:31:09;100638.72;;;29.12;54.62
47154;BME280;32907;41.412;2.164;2023-07-13T05:33:38;100643.06;;;29.13;54.46
47154;BME280;32907;41.412;2.164;2023-07-13T05:36:06;100623.56;;;28.94;54.47
47154;BME280;32907;41.412;2.164;2023-07-13T05:38:35;100649.28;;;29.10;53.67
47154;BME280;32907;41.412;2.164;2023-07-13T05:41:03;100604.25;;;28.82;53.77
47154;BME280;32907;41.412;2.164;2023-07-13T05:43:33;100608.19;;;28.81;53.72
47154;BME280;32907;41.412;2.164;2023-07-13T05:46:01;100643.09;;;29.01;53.93
47154;BME280;32907;41.412;2.164;2023-07-13T05:48:29;100596.34;;;28.68;53.65
47154;BME280;32907;41.412;2.164;2023-07-13T05:50:57;100658.28;;;29.07;53.78
47154;BME280;32907;41.412;2.164;2023-07-13T05:53:25;100644.59;;;28.98;53.84
47154;BME280;32907;41.412;2.164;2023-07-13T05:55:54;100643.69;;;28.94;53.58
47154;BME280;32907;41.412;2.164;2023-07-13T05:58:22;100623.22;;;28.83;54.02
47154;BME280;32907;41.412;2.164;2023-07-13T06:00:59;100609.66;;;28.78;53.42
47154;BME280;32907;41.412;2.164;2023-07-13T06:03:27;100661.94;;;29.11;53.56
47154;BME280;32907;41.412;2.164;2023-07-13T06:05:55;100661.94;;;29.11;52.54
47154;BME280;32907;41.412;2.164;2023-07-13T06:08:23;100623.13;;;28.80;52.60
47154;BME280;32907;41.412;2.164;2023-07-13T06:10:51;100656.66;;;29.06;52.62
47154;BME280;32907;41.412;2.164;2023-07-13T06:13:21;100613.22;;;28.79;52.66
47154;BME280;32907;41.412;2.164;2023-07-13T06:15:49;100652.09;;;28.98;52.64
47154;BME280;32907;41.412;2.164;2023-07-13T06:18:19;100651.06;;;28.90;51.93
47154;BME280;32907;41.412;2.164;2023-07-13T06:20:47;100667.97;;;28.89;52.40
47154;BME280;32907;41.412;2.164;2023-07-13T06:23:15;100676.81;;;28.82;52.99
47154;BME280;32907;41.412;2.164;2023-07-13T06:25:43;100591.59;;;28.16;53.19
47154;BME280;32907;41.412;2.164;2023-07-13T06:28:11;100663.50;;;28.60;53.45
47154;BME280;32907;41.412;2.164;2023-07-13T06:30:39;100661.31;;;28.53;54.01
47154;BME280;32907;41.412;2.164;2023-07-13T06:33:07;100625.47;;;28.17;53.88
47154;BME280;32907;41.412;2.164;2023-07-13T06:35:35;100646.53;;;28.33;53.99
47154;BME280;32907;41.412;2.164;2023-07-13T06:38:03;100693.28;;;28.66;53.81
47154;BME280;32907;41.412;2.164;2023-07-13T06:40:32;100689.94;;;28.61;53.92
47154;BME280;32907;41.412;2.164;2023-07-13T06:43:00;100687.88;;;28.58;54.07
47154;BME280;32907;41.412;2.164;2023-07-13T06:45:27;100644.75;;;28.29;53.99
47154;BME280;32907;41.412;2.164;2023-07-13T06:47:55;100694.66;;;28.60;53.77
47154;BME280;32907;41.412;2.164;2023-07-13T06:50:23;100689.72;;;28.54;54.19
47154;BME280;32907;41.412;2.164;2023-07-13T06:52:51;100650.44;;;28.32;53.95
47154;BME280;32907;41.412;2.164;2023-07-13T06:55:20;100678.22;;;28.52;54.15
47154;BME280;32907;41.412;2.164;2023-07-13T06:57:48;100714.88;;;28.77;53.71
47154;BME280;32907;41.412;2.164;2023-07-13T07:00:16;100698.81;;;28.66;54.12
47154;BME280;32907;41.412;2.164;2023-07-13T07:02:44;100691.78;;;28.69;53.65
47154;BME280;32907;41.412;2.164;2023-07-13T07:05:12;100722.22;;;28.85;53.46
47154;BME280;32907;41.412;2.164;2023-07-13T07:07:40;100679.84;;;28.53;54.20
47154;BME280;32907;41.412;2.164;2023-07-13T07:10:08;100721.34;;;28.81;54.03
47154;BME280;32907;41.412;2.164;2023-07-13T07:12:36;100723.03;;;28.85;53.47
47154;BME280;32907;41.412;2.164;2023-07-13T07:15:04;100717.28;;;28.78;53.78
47154;BME280;32907;41.412;2.164;2023-07-13T07:17:32;100700.84;;;28.69;54.36
47154;BME280;32907;41.412;2.164;2023-07-13T07:20:00;100659.94;;;28.47;54.27
47154;BME280;32907;41.412;2.164;2023-07-13T07:22:28;100728.91;;;28.84;53.65
47154;BME280;32907;41.412;2.164;2023-07-13T07:24:57;100716.50;;;28.78;53.70
47154;BME280;32907;41.412;2.164;2023-07-13T07:27:25;100721.34;;;28.81;53.79
47154;BME280;32907;41.412;2.164;2023-07-13T07:29:56;100702.81;;;28.69;53.85
47154;BME280;32907;41.412;2.164;2023-07-13T07:32:29;100722.13;;;28.81;53.84
47154;BME280;32907;41.412;2.164;2023-07-13T07:35:19;100700.50;;;28.71;53.43
47154;BME280;32907;41.412;2.164;2023-07-13T07:37:47;100639.00;;;28.22;54.35
47154;BME280;32907;41.412;2.164;2023-07-13T07:40:18;100578.81;;;27.87;54.25
47154;BME280;32907;41.412;2.164;2023-07-13T07:42:49;100667.41;;;28.47;53.84
47154;BME280;32907;41.412;2.164;2023-07-13T07:45:17;100735.25;;;28.96;53.88
47154;BME280;32907;41.412;2.164;2023-07-13T07:47:46;100682.81;;;28.60;54.17
47154;BME280;32907;41.412;2.164;2023-07-13T07:50:14;100737.41;;;29.03;53.69
47154;BME280;32907;41.412;2.164;2023-07-13T07:52:44;100735.59;;;29.07;53.37
47154;BME280;32907;41.412;2.164;2023-07-13T07:55:16;100733.50;;;29.16;53.54
47154;BME280;32907;41.412;2.164;2023-07-13T07:57:47;100742.69;;;29.20;53.03
47154;BME280;32907;41.412;2.164;2023-07-13T08:00:17;100725.91;;;29.13;53.14
47154;BME280;32907;41.412;2.164;2023-07-13T08:02:49;100687.75;;;28.91;53.07
47154;BME280;32907;41.412;2.164;2023-07-13T08:05:23;100744.75;;;29.23;53.21
47154;BME280;32907;41.412;2.164;2023-07-13T08:08:10;100741.31;;;29.14;53.21
47154;BME280;32907;41.412;2.164;2023-07-13T08:10:38;100742.47;;;29.13;53.39
47154;BME280;32907;41.412;2.164;2023-07-13T08:13:06;100733.97;;;29.06;53.36
47154;BME280;32907;41.412;2.164;2023-07-13T08:15:37;100730.78;;;29.04;53.24
47154;BME280;32907;41.412;2.164;2023-07-13T08:18:09;100718.22;;;28.94;53.41
47154;BME280;32907;41.412;2.164;2023-07-13T08:20:38;100717.78;;;28.92;53.81
47154;BME280;32907;41.412;2.164;2023-07-13T08:23:09;100711.19;;;28.85;53.59
47154;BME280;32907;41.412;2.164;2023-07-13T08:25:37;100713.59;;;28.86;53.93
47154;BME280;32907;41.412;2.164;2023-07-13T08:28:06;100744.75;;;29.11;53.41
47154;BME280;32907;41.412;2.164;2023-07-13T08:30:34;100739.72;;;29.13;53.56
47154;BME280;32907;41.412;2.164;2023-07-13T08:33:02;100746.84;;;29.14;53.07
47154;BME280;32907;41.412;2.164;2023-07-13T08:35:30;100701.09;;;28.89;53.22
47154;BME280;32907;41.412;2.164;2023-07-13T08:37:58;100742.22;;;29.18;53.21
47154;BME280;32907;41.412;2.164;2023-07-13T08:40:27;100746.84;;;29.14;53.58
47154;BME280;32907;41.412;2.164;2023-07-13T08:42:59;100700.28;;;28.88;54.45
47154;BME280;32907;41.412;2.164;2023-07-13T08:45:46;100747.97;;;29.25;55.22
47154;BME280;32907;41.412;2.164;2023-07-13T08:48:22;100732.31;;;29.17;55.53
47154;BME280;32907;41.412;2.164;2023-07-13T08:51:00;100747.97;;;29.25;56.74
47154;BME280;32907;41.412;2.164;2023-07-13T08:53:38;100744.84;;;29.27;56.93
47154;BME280;32907;41.412;2.164;2023-07-13T08:56:11;100749.13;;;29.24;57.02
47154;BME280;32907;41.412;2.164;2023-07-13T08:58:45;100752.22;;;29.23;55.96
47154;BME280;32907;41.412;2.164;2023-07-13T09:04:11;100733.50;;;29.16;57.07
47154;BME280;32907;41.412;2.164;2023-07-13T09:07:06;100750.28;;;29.23;57.58
47154;BME280;32907;41.412;2.164;2023-07-13T09:15:25;100750.97;;;29.20;58.02
47154;BME280;32907;41.412;2.164;2023-07-13T09:17:55;100749.34;;;29.19;57.72
47154;BME280;32907;41.412;2.164;2023-07-13T09:20:35;100747.88;;;29.22;57.70
47154;BME280;32907;41.412;2.164;2023-07-13T09:23:07;100727.75;;;29.09;56.10
47154;BME280;32907;41.412;2.164;2023-07-13T09:25:40;100708.69;;;29.04;56.55
47154;BME280;32907;41.412;2.164;2023-07-13T09:28:19;100722.66;;;29.11;56.61
47154;BME280;32907;41.412;2.164;2023-07-13T09:33:36;100720.03;;;29.15;56.12
47154;BME280;32907;41.412;2.164;2023-07-13T09:36:27;100753.03;;;29.36;56.35
47154;BME280;32907;41.412;2.164;2023-07-13T09:41:57;100749.09;;;29.37;55.77
47154;BME280;32907;41.412;2.164;2023-07-13T09:44:29;100766.56;;;29.41;55.66
47154;BME280;32907;41.412;2.164;2023-07-13T09:46:59;100744.25;;;29.34;55.70
47154;BME280;32907;41.412;2.164;2023-07-13T09:49:35;100712.31;;;29.20;54.77
47154;BME280;32907;41.412;2.164;2023-07-13T09:52:11;100766.47;;;29.49;54.38
47154;BME280;32907;41.412;2.164;2023-07-13T09:54:44;100737.94;;;29.33;54.01
47154;BME280;32907;41.412;2.164;2023-07-13T09:57:18;100759.88;;;29.54;54.27
47154;BME280;32907;41.412;2.164;2023-07-13T09:59:48;100763.69;;;29.49;54.51
47154;BME280;32907;41.412;2.164;2023-07-13T10:04:59;100756.41;;;29.57;53.37
47154;BME280;32907;41.412;2.164;2023-07-13T10:07:27;100768.84;;;29.63;53.13
47154;BME280;32907;41.412;2.164;2023-07-13T10:09:58;100764.31;;;29.71;53.50
47154;BME280;32907;41.412;2.164;2023-07-13T10:12:30;100775.00;;;29.72;52.67
47154;BME280;32907;41.412;2.164;2023-07-13T10:15:07;100779.22;;;29.82;52.05
47154;BME280;32907;41.412;2.164;2023-07-13T10:17:51;100779.72;;;29.84;51.77
47154;BME280;32907;41.412;2.164;2023-07-13T10:20:21;100760.31;;;29.68;51.55
47154;BME280;32907;41.412;2.164;2023-07-13T10:23:04;100783.00;;;29.90;50.71
47154;BME280;32907;41.412;2.164;2023-07-13T10:25:37;100748.53;;;29.71;50.47
47154;BME280;32907;41.412;2.164;2023-07-13T10:28:20;100760.97;;;29.77;50.20
47154;BME280;32907;41.412;2.164;2023-07-13T10:30:51;100776.06;;;29.96;50.08
47154;BME280;32907;41.412;2.164;2023-07-13T10:33:20;100762.41;;;29.87;49.37
47154;BME280;32907;41.412;2.164;2023-07-13T10:35:51;100776.16;;;29.99;49.06
47154;BME280;32907;41.412;2.164;2023-07-13T10:38:22;100779.63;;;30.08;49.54
47154;BME280;32907;41.412;2.164;2023-07-13T10:40:58;100788.56;;;30.18;49.13
47154;BME280;32907;41.412;2.164;2023-07-13T10:43:45;100752.53;;;30.02;47.97
47154;BME280;32907;41.412;2.164;2023-07-13T10:46:16;100789.19;;;30.27;47.96
47154;BME280;32907;41.412;2.164;2023-07-13T10:48:49;100772.75;;;30.18;47.07
47154;BME280;32907;41.412;2.164;2023-07-13T10:51:21;100791.94;;;30.27;47.17
47154;BME280;32907;41.412;2.164;2023-07-13T10:57:20;100785.63;;;30.26;45.77
47154;BME280;32907;41.412;2.164;2023-07-13T11:00:13;100778.47;;;30.25;45.78
47154;BME280;32907;41.412;2.164;2023-07-13T11:02:38;100763.03;;;30.08;45.30
47154;BME280;32907;41.412;2.164;2023-07-13T11:05:25;100784.19;;;30.32;44.36
47154;BME280;32907;41.412;2.164;2023-07-13T11:08:02;100795.28;;;30.32;43.97
47154;BME280;32907;41.412;2.164;2023-07-13T11:10:53;100779.09;;;30.34;42.92
47154;BME280;32907;41.412;2.164;2023-07-13T11:24:51;100776.78;;;30.52;41.71
47154;BME280;32907;41.412;2.164;2023-07-13T11:27:36;100769.09;;;30.61;43.30
47154;BME280;32907;41.412;2.164;2023-07-13T11:30:25;100761.09;;;30.72;41.14
47154;BME280;32907;41.412;2.164;2023-07-13T11:36:14;100763.59;;;30.77;40.93
47154;BME280;32907;41.412;2.164;2023-07-13T11:38:45;100716.81;;;30.41;42.04
47154;BME280;32907;41.412;2.164;2023-07-13T11:41:28;100749.13;;;30.68;39.55
47154;BME280;32907;41.412;2.164;2023-07-13T11:44:07;100727.16;;;30.59;39.16
47154;BME280;32907;41.412;2.164;2023-07-13T11:46:38;100752.16;;;30.79;39.59
47154;BME280;32907;41.412;2.164;2023-07-13T11:49:06;100728.69;;;30.57;39.40
47154;BME280;32907;41.412;2.164;2023-07-13T11:51:36;100705.19;;;30.51;38.18
47154;BME280;32907;41.412;2.164;2023-07-13T11:54:11;100767.25;;;30.81;39.94
47154;BME280;32907;41.412;2.164;2023-07-13T11:56:42;100710.72;;;30.51;38.37
47154;BME280;32907;41.412;2.164;2023-07-13T11:59:12;100748.94;;;30.77;39.01
47154;BME280;32907;41.412;2.164;2023-07-13T12:01:53;100739.66;;;30.69;38.56
47154;BME280;32907;41.412;2.164;2023-07-13T12:04:34;100729.56;;;30.61;38.63
47154;BME280;32907;41.412;2.164;2023-07-13T12:07:15;100728.16;;;30.67;39.76
47154;BME280;32907;41.412;2.164;2023-07-13T12:09:43;100736.63;;;30.74;40.75
47154;BME280;32907;41.412;2.164;2023-07-13T12:12:13;100743.03;;;30.78;40.91
47154;BME280;32907;41.412;2.164;2023-07-13T12:14:42;100735.47;;;30.75;40.27
47154;BME280;32907;41.412;2.164;2023-07-13T12:17:21;100739.56;;;30.81;37.86
47154;BME280;32907;41.412;2.164;2023-07-13T12:19:50;100739.41;;;30.74;38.44
47154;BME280;32907;41.412;2.164;2023-07-13T12:22:20;100746.88;;;30.89;38.39
47154;BME280;32907;41.412;2.164;2023-07-13T12:24:48;100742.94;;;30.90;38.33
47154;BME280;32907;41.412;2.164;2023-07-13T12:30:02;100740.53;;;30.89;37.94
47154;BME280;32907;41.412;2.164;2023-07-13T12:32:31;100733.09;;;30.93;38.76
47154;BME280;32907;41.412;2.164;2023-07-13T12:35:16;100721.78;;;30.82;37.76
47154;BME280;32907;41.412;2.164;2023-07-13T12:37:51;100707.06;;;30.78;37.54
47154;BME280;32907;41.412;2.164;2023-07-13T12:40:21;100724.13;;;30.80;37.22
47154;BME280;32907;41.412;2.164;2023-07-13T12:42:52;100697.94;;;30.62;37.14
47154;BME280;32907;41.412;2.164;2023-07-13T12:45:22;100735.63;;;30.82;37.30
47154;BME280;32907;41.412;2.164;2023-07-13T12:47:59;100694.75;;;30.60;37.27
47154;BME280;32907;41.412;2.164;2023-07-13T12:50:46;100720.53;;;30.80;36.48
47154;BME280;32907;41.412;2.164;2023-07-13T12:53:21;100730.00;;;30.79;37.43
47154;BME280;32907;41.412;2.164;2023-07-13T12:55:55;100719.94;;;30.71;36.80
47154;BME280;32907;41.412;2.164;2023-07-13T12:58:38;100687.00;;;30.50;37.49
47154;BME280;32907;41.412;2.164;2023-07-13T13:01:07;100677.91;;;30.49;37.79
47154;BME280;32907;41.412;2.164;2023-07-13T13:03:37;100692.22;;;30.55;37.05
47154;BME280;32907;41.412;2.164;2023-07-13T13:06:24;100692.22;;;30.55;37.06
47154;BME280;32907;41.412;2.164;2023-07-13T13:08:55;100726.78;;;30.77;37.65
47154;BME280;32907;41.412;2.164;2023-07-13T13:11:29;100705.28;;;30.70;37.79
47154;BME280;32907;41.412;2.164;2023-07-13T13:13:58;100713.16;;;30.68;37.32
47154;BME280;32907;41.412;2.164;2023-07-13T13:18:57;100711.34;;;30.60;37.20
47154;BME280;32907;41.412;2.164;2023-07-13T13:21:26;100703.41;;;30.58;37.71
47154;BME280;32907;41.412;2.164;2023-07-13T13:23:54;100717.09;;;30.67;37.96
47154;BME280;32907;41.412;2.164;2023-07-13T13:26:22;100717.09;;;30.67;38.38
47154;BME280;32907;41.412;2.164;2023-07-13T13:28:50;100705.28;;;30.54;38.33
47154;BME280;32907;41.412;2.164;2023-07-13T13:31:18;100655.31;;;30.31;38.08
47154;BME280;32907;41.412;2.164;2023-07-13T13:33:46;100707.03;;;30.62;38.02
47154;BME280;32907;41.412;2.164;2023-07-13T13:36:17;100722.69;;;30.71;37.44
47154;BME280;32907;41.412;2.164;2023-07-13T13:38:47;100709.22;;;30.69;37.40
47154;BME280;32907;41.412;2.164;2023-07-13T13:41:17;100663.59;;;30.47;35.87
47154;BME280;32907;41.412;2.164;2023-07-13T13:43:46;100711.72;;;30.74;36.46
47154;BME280;32907;41.412;2.164;2023-07-13T13:46:19;100677.97;;;30.53;35.75
47154;BME280;32907;41.412;2.164;2023-07-13T13:48:51;100678.41;;;30.55;37.23
47154;BME280;32907;41.412;2.164;2023-07-13T13:51:21;100705.38;;;30.74;38.21
47154;BME280;32907;41.412;2.164;2023-07-13T13:53:50;100676.44;;;30.55;36.97